createdAt,value
2023-04-24T04:00:23.417Z,6.10
2023-04-24T04:02:55.316Z,5.95
2023-04-24T04:05:27.163Z,6.50
2023-04-24T04:07:58.936Z,5.60
2023-04-24T04:10:30.585Z,6.17
2023-04-24T04:13:02.261Z,5.90
2023-04-24T04:15:35.288Z,6.23
2023-04-24T04:18:07.039Z,6.38
2023-04-24T04:20:38.779Z,5.75
2023-04-24T04:23:10.511Z,6.00
2023-04-24T04:25:42.220Z,5.47
2023-04-24T04:28:13.917Z,5.17
2023-04-24T04:30:46.936Z,5.63
2023-04-24T04:33:18.629Z,5.38
2023-04-24T04:35:50.312Z,5.72
2023-04-24T04:38:22.067Z,5.03
2023-04-24T04:40:53.748Z,5.47
2023-04-24T04:43:25.484Z,5.57
2023-04-24T04:45:58.770Z,5.45
2023-04-24T04:48:30.596Z,5.07
2023-04-24T04:51:02.340Z,5.10
2023-04-24T04:53:34.060Z,5.10
2023-04-24T04:56:06.034Z,5.13
2023-04-24T04:58:37.733Z,5.43
2023-04-24T05:01:10.810Z,5.10
2023-04-24T05:03:42.608Z,5.47
2023-04-24T05:06:14.500Z,5.23
2023-04-24T05:08:46.187Z,5.40
2023-04-24T05:11:17.993Z,4.87
2023-04-24T05:13:49.740Z,4.47
2023-04-24T05:16:22.836Z,5.23
2023-04-24T05:18:54.559Z,4.83
2023-04-24T05:21:26.318Z,5.13
2023-04-24T05:23:58.004Z,5.70
2023-04-24T05:26:29.685Z,4.97
2023-04-24T05:29:01.385Z,4.77
2023-04-24T05:31:34.605Z,5.27
2023-04-24T05:34:06.298Z,5.20
2023-04-24T05:36:37.998Z,5.43
2023-04-24T05:39:09.707Z,5.20
2023-04-24T05:41:41.419Z,5.07
2023-04-24T05:44:13.090Z,5.00
2023-04-24T05:46:46.206Z,5.67
2023-04-24T05:49:17.996Z,5.73
2023-04-24T05:51:49.719Z,5.30
2023-04-24T05:54:21.462Z,5.60
2023-04-24T05:56:53.194Z,5.03
2023-04-24T05:59:24.963Z,4.90
2023-04-24T06:01:58.062Z,5.22
2023-04-24T06:04:29.947Z,5.87
2023-04-24T06:07:01.795Z,4.77
2023-04-24T06:09:33.514Z,4.50
2023-04-24T06:12:05.573Z,4.40
2023-04-24T06:14:37.257Z,3.70
2023-04-24T06:17:10.335Z,2.90
2023-04-24T06:19:42.350Z,3.07
2023-04-24T06:22:14.273Z,2.63
2023-04-24T06:24:45.956Z,2.60
2023-04-24T06:27:17.758Z,2.60
2023-04-24T06:29:49.507Z,2.83
2023-04-24T06:32:23.707Z,2.50
2023-04-24T06:34:55.561Z,2.75
2023-04-24T06:37:27.348Z,2.25
2023-04-24T06:39:59.052Z,2.37
2023-04-24T06:42:30.783Z,2.40
2023-04-24T06:45:02.651Z,2.03
2023-04-24T06:47:35.789Z,2.10
2023-04-24T06:50:08.413Z,2.20
2023-04-24T06:52:40.168Z,2.23
2023-04-24T06:55:11.920Z,2.37
2023-04-24T06:57:43.836Z,2.40
2023-04-24T07:00:16.123Z,2.20
2023-04-24T07:02:49.354Z,2.40
2023-04-24T07:05:21.138Z,2.40
2023-04-24T07:07:52.818Z,2.60
2023-04-24T07:10:24.496Z,2.50
2023-04-24T07:12:56.216Z,2.47
2023-04-24T07:15:27.944Z,2.27
2023-04-24T07:18:03.389Z,2.47
2023-04-24T07:20:36.608Z,2.30
2023-04-24T07:23:08.323Z,2.60
2023-04-24T07:25:40.064Z,2.70
2023-04-24T07:28:11.770Z,2.53
2023-04-24T07:30:43.461Z,2.50
2023-04-24T07:33:16.633Z,2.67
2023-04-24T07:35:48.380Z,3.20
2023-04-24T07:38:20.055Z,2.50
2023-04-24T07:40:51.779Z,2.40
2023-04-24T07:43:23.451Z,3.23
2023-04-24T07:45:55.157Z,2.30
2023-04-24T07:48:28.251Z,1.80
2023-04-24T07:50:59.900Z,2.17
2023-04-24T07:53:31.621Z,1.80
2023-04-24T07:56:03.295Z,1.93
2023-04-24T07:58:34.994Z,1.80
2023-04-24T08:01:06.676Z,1.90
2023-04-24T08:03:39.874Z,1.80
2023-04-24T08:06:11.599Z,1.90
2023-04-24T08:08:43.285Z,2.37
2023-04-24T08:11:14.940Z,1.90
2023-04-24T08:13:46.664Z,1.60
2023-04-24T08:16:18.377Z,1.90
2023-04-24T08:18:51.436Z,2.15
2023-04-24T08:21:23.139Z,2.67
2023-04-24T08:23:54.842Z,1.90
2023-04-24T08:26:26.542Z,1.83
2023-04-24T08:28:58.261Z,1.90
2023-04-24T08:31:29.979Z,1.83
2023-04-24T08:34:03.006Z,2.13
2023-04-24T08:36:45.816Z,1.63
2023-04-24T08:39:18.602Z,2.03
2023-04-24T08:41:50.275Z,1.90
2023-04-24T08:44:21.951Z,2.30
2023-04-24T08:46:53.784Z,2.10
2023-04-24T08:49:26.882Z,2.40
2023-04-24T08:51:58.602Z,2.00
2023-04-24T08:54:30.361Z,2.80
2023-04-24T08:57:02.396Z,2.47
2023-04-24T08:59:34.075Z,2.73
2023-04-24T09:02:05.871Z,2.87
2023-04-24T09:04:39.136Z,2.60
2023-04-24T09:07:10.931Z,3.60
2023-04-24T09:09:42.823Z,3.53
2023-04-24T09:12:14.822Z,3.70
2023-04-24T09:14:46.717Z,3.70
2023-04-24T09:17:18.471Z,3.90
2023-04-24T09:19:51.506Z,4.10
2023-04-24T09:22:23.187Z,3.93
2023-04-24T09:25:02.238Z,4.73
2023-04-24T09:27:34.003Z,4.57
2023-04-24T09:30:06.920Z,4.70
2023-04-24T09:32:38.614Z,4.93
2023-04-24T09:35:12.717Z,5.63
2023-04-24T09:37:45.332Z,5.10
2023-04-24T09:40:17.610Z,5.50
2023-04-24T09:42:53.336Z,5.63
2023-04-24T09:45:28.561Z,5.30
2023-04-24T09:48:00.407Z,5.07
2023-04-24T09:50:33.621Z,5.93
2023-04-24T09:53:06.077Z,5.80
2023-04-24T09:55:40.359Z,5.57
2023-04-24T09:58:12.144Z,5.33
2023-04-24T10:00:43.829Z,6.03
2023-04-24T10:03:15.663Z,5.43
2023-04-24T10:05:48.808Z,5.73
2023-04-24T10:08:20.572Z,5.80
2023-04-24T10:10:52.276Z,4.80
2023-04-24T10:13:24.116Z,4.87
2023-04-24T10:15:55.976Z,4.63
2023-04-24T10:18:27.767Z,4.37
2023-04-24T10:21:00.903Z,4.30
2023-04-24T10:23:32.620Z,4.43
2023-04-24T10:26:04.403Z,4.03
2023-04-24T10:28:36.223Z,4.07
2023-04-24T10:31:07.918Z,3.80
2023-04-24T10:33:39.773Z,3.60
2023-04-24T10:36:13.072Z,4.03
2023-04-24T10:38:44.867Z,3.50
2023-04-24T10:41:17.920Z,3.92
2023-04-24T10:43:49.669Z,3.70
2023-04-24T10:46:21.460Z,3.57
2023-04-24T10:48:53.935Z,3.43
2023-04-24T10:51:47.053Z,3.30
2023-04-24T10:54:26.083Z,3.43
2023-04-24T10:57:27.946Z,3.70
2023-04-24T11:00:15.023Z,4.33
2023-04-24T11:02:47.445Z,3.65
2023-04-24T11:05:19.595Z,3.67
2023-04-24T11:08:15.061Z,4.13
2023-04-24T11:10:47.096Z,4.00
2023-04-24T11:13:18.807Z,3.73
2023-04-24T11:16:15.267Z,4.03
2023-04-24T11:18:46.972Z,4.30
2023-04-24T11:21:18.739Z,4.10
2023-04-24T11:23:51.768Z,4.50
2023-04-24T11:26:23.645Z,4.40
2023-04-24T11:28:55.301Z,4.60
2023-04-24T11:31:39.810Z,4.30
2023-04-24T11:34:12.427Z,3.87
2023-04-24T11:36:44.457Z,4.32
2023-04-24T11:39:17.532Z,3.67
2023-04-24T11:41:49.237Z,4.40
2023-04-24T11:44:20.915Z,4.20
2023-04-24T11:46:52.649Z,4.95
2023-04-24T11:49:24.444Z,4.20
2023-04-24T11:51:58.045Z,4.35
2023-04-24T11:54:32.840Z,4.72
2023-04-24T11:57:05.444Z,4.72
2023-04-24T11:59:37.501Z,4.53
2023-04-24T12:02:09.324Z,5.10
2023-04-24T12:04:41.262Z,5.10
2023-04-24T12:07:13.170Z,4.80
2023-04-24T12:09:57.268Z,4.57
2023-04-24T12:12:29.145Z,4.50
2023-04-24T12:15:01.100Z,4.28
2023-04-24T12:17:33.613Z,4.45
2023-04-24T12:20:06.703Z,4.75
2023-04-24T12:22:45.459Z,4.13
2023-04-24T12:25:19.170Z,4.75
2023-04-24T12:27:53.937Z,4.63
2023-04-24T12:30:28.013Z,4.25
2023-04-24T12:33:00.090Z,4.43
2023-04-24T12:35:32.985Z,4.40
2023-04-24T12:38:07.653Z,4.15
2023-04-24T12:40:40.760Z,4.38
2023-04-24T12:43:15.613Z,4.40
2023-04-24T12:45:47.925Z,4.35
2023-04-24T12:48:19.658Z,4.00
2023-04-24T12:50:51.307Z,4.05
2023-04-24T12:53:23.011Z,4.68
2023-04-24T12:55:56.477Z,4.13
2023-04-24T12:58:28.196Z,4.20
2023-04-24T13:00:59.986Z,4.30
2023-04-24T13:03:31.854Z,4.18
2023-04-24T13:06:03.696Z,4.45
2023-04-24T13:08:35.355Z,3.70
2023-04-24T13:11:08.516Z,3.35
2023-04-24T13:13:40.396Z,4.18
2023-04-24T13:16:12.439Z,3.90
2023-04-24T13:18:44.130Z,4.20
2023-04-24T13:21:15.860Z,4.30
2023-04-24T13:23:47.542Z,3.85
2023-04-24T13:26:20.590Z,4.13
2023-04-24T13:28:52.301Z,3.40
2023-04-24T13:31:24.067Z,4.13
2023-04-24T13:33:55.733Z,4.30
2023-04-24T13:36:27.462Z,3.95
2023-04-24T13:38:59.137Z,3.90
2023-04-24T13:41:32.492Z,3.53
2023-04-24T13:44:04.507Z,3.35
2023-04-24T13:46:36.274Z,3.45
2023-04-24T13:49:08.510Z,4.28
2023-04-24T13:51:41.322Z,3.85
2023-04-24T13:54:13.044Z,3.45
2023-04-24T13:56:46.079Z,4.32
2023-04-24T13:59:17.751Z,3.75
2023-04-24T14:01:49.620Z,3.88
2023-04-24T14:04:21.576Z,3.63
2023-04-24T14:06:53.758Z,3.17
2023-04-24T14:09:25.405Z,3.00
2023-04-24T14:11:58.462Z,3.22
2023-04-24T14:14:30.550Z,3.35
2023-04-24T14:17:02.251Z,3.28
2023-04-24T14:19:33.920Z,3.72
2023-04-24T14:22:05.704Z,3.15
2023-04-24T14:24:37.365Z,3.67
2023-04-24T14:27:10.388Z,3.47
2023-04-24T14:29:42.053Z,4.43
2023-04-24T14:32:13.762Z,3.60
2023-04-24T14:34:45.426Z,3.60
2023-04-24T14:37:17.093Z,3.80
2023-04-24T14:39:55.777Z,3.58
2023-04-24T14:42:39.578Z,3.90
2023-04-24T14:45:11.535Z,3.45
2023-04-24T14:47:43.284Z,4.22
2023-04-24T14:50:14.969Z,3.60
2023-04-24T14:52:46.734Z,4.25
2023-04-24T14:55:18.617Z,3.70
2023-04-24T14:57:51.654Z,3.33
2023-04-24T15:00:23.391Z,3.47
2023-04-24T15:02:55.283Z,3.35
2023-04-24T15:05:27.424Z,3.17
2023-04-24T15:07:59.222Z,3.08
2023-04-24T15:10:30.982Z,3.08
2023-04-24T15:13:04.027Z,3.05
2023-04-24T15:15:35.733Z,3.75
2023-04-24T15:18:08.714Z,3.28
2023-04-24T15:20:40.487Z,3.30
2023-04-24T15:23:12.233Z,3.05
2023-04-24T15:25:43.873Z,3.33
2023-04-24T15:28:16.896Z,3.55
2023-04-24T15:30:48.618Z,3.78
2023-04-24T15:33:20.344Z,2.85
2023-04-24T15:35:52.406Z,3.10
2023-04-24T15:38:24.057Z,3.22
2023-04-24T15:40:55.681Z,3.40
2023-04-24T15:43:28.714Z,3.10
2023-04-24T15:46:00.419Z,3.28
2023-04-24T15:48:32.221Z,3.53
2023-04-24T15:51:04.073Z,3.08
2023-04-24T15:53:35.755Z,3.25
2023-04-24T15:56:07.427Z,3.08
2023-04-24T15:58:40.439Z,3.38
2023-04-24T16:01:12.146Z,3.10
2023-04-24T16:03:43.929Z,3.55
2023-04-24T16:06:15.642Z,3.42
2023-04-24T16:08:47.460Z,3.13
2023-04-24T16:11:19.282Z,3.10
2023-04-24T16:13:52.363Z,3.10
2023-04-24T16:16:24.068Z,3.17
2023-04-24T16:18:55.733Z,2.70
2023-04-24T16:21:27.371Z,2.80
2023-04-24T16:23:59.002Z,3.10
2023-04-24T16:26:30.684Z,3.22
2023-04-24T16:29:03.646Z,2.63
2023-04-24T16:31:35.343Z,2.92
2023-04-24T16:34:07.021Z,3.08
2023-04-24T16:36:38.658Z,2.50
2023-04-24T16:39:10.302Z,2.30
2023-04-24T16:41:41.957Z,2.65
2023-04-24T16:44:14.943Z,2.80
2023-04-24T16:46:46.665Z,2.70
2023-04-24T16:49:18.372Z,2.88
2023-04-24T16:51:50.021Z,2.60
2023-04-24T16:54:21.675Z,2.60
2023-04-24T16:56:53.511Z,2.45
2023-04-24T16:59:26.511Z,2.88
2023-04-24T17:01:58.208Z,2.55
2023-04-24T17:04:29.978Z,2.80
2023-04-24T17:07:01.743Z,2.60
2023-04-24T17:09:33.449Z,2.78
2023-04-24T17:12:05.639Z,2.45
2023-04-24T17:14:38.660Z,2.58
2023-04-24T17:17:10.301Z,2.42
2023-04-24T17:19:41.985Z,2.72
2023-04-24T17:22:13.650Z,2.42
2023-04-24T17:24:45.312Z,2.25
2023-04-24T17:27:16.948Z,2.30
2023-04-24T17:29:49.971Z,2.33
2023-04-24T17:32:21.723Z,2.22
2023-04-24T17:34:53.398Z,2.78
2023-04-24T17:37:25.035Z,2.28
2023-04-24T17:39:56.727Z,1.98
2023-04-24T17:42:28.374Z,2.60
2023-04-24T17:45:01.606Z,2.08
2023-04-24T17:47:33.295Z,2.78
2023-04-24T17:50:05.874Z,2.40
2023-04-24T17:52:37.522Z,2.25
2023-04-24T17:55:09.631Z,2.42
2023-04-24T17:57:41.286Z,2.13
2023-04-24T18:00:15.524Z,2.30
2023-04-24T18:02:47.301Z,2.13
2023-04-24T18:05:19.300Z,2.20
2023-04-24T18:07:50.937Z,2.20
2023-04-24T18:10:22.844Z,2.55
2023-04-24T18:12:54.503Z,2.50
2023-04-24T18:15:27.502Z,2.15
2023-04-24T18:17:59.566Z,2.03
2023-04-24T18:20:31.327Z,2.07
2023-04-24T18:23:03.452Z,2.17
2023-04-24T18:25:35.215Z,2.25
2023-04-24T18:28:06.856Z,2.30
2023-04-24T18:30:39.877Z,1.90
2023-04-24T18:33:11.512Z,1.90
2023-04-24T18:35:43.174Z,2.00
2023-04-24T18:38:14.809Z,2.00
2023-04-24T18:40:46.494Z,2.00
2023-04-24T18:43:18.157Z,2.13
2023-04-24T18:45:51.155Z,2.20
2023-04-24T18:48:22.844Z,2.60
2023-04-24T18:50:54.512Z,2.63
2023-04-24T18:53:26.162Z,2.87
2023-04-24T18:55:57.831Z,2.40
2023-04-24T18:58:29.470Z,2.60
2023-04-24T19:01:02.551Z,2.20
2023-04-24T19:03:34.236Z,2.57
2023-04-24T19:06:05.986Z,2.97
2023-04-24T19:08:37.599Z,2.57
2023-04-24T19:11:09.285Z,2.57
2023-04-24T19:13:40.928Z,2.50
2023-04-24T19:16:14.005Z,2.40
2023-04-24T19:18:45.675Z,2.67
2023-04-24T19:21:17.377Z,2.70
2023-04-24T19:23:49.024Z,2.73
2023-04-24T19:26:20.698Z,2.70
2023-04-24T19:28:52.670Z,2.83
2023-04-24T19:31:25.727Z,2.93
2023-04-24T19:33:57.392Z,2.70
2023-04-24T19:36:29.797Z,3.00
2023-04-24T19:39:01.426Z,3.30
2023-04-24T19:41:33.120Z,3.23
2023-04-24T19:44:05.027Z,3.30
2023-04-24T19:46:38.065Z,3.40
2023-04-24T19:49:09.699Z,3.33
2023-04-24T19:51:41.360Z,3.13
2023-04-24T19:54:13.606Z,3.50
2023-04-24T19:56:45.256Z,3.40
2023-04-24T19:59:16.926Z,4.13
2023-04-24T20:01:50.009Z,3.20
2023-04-24T20:04:21.859Z,3.30
2023-04-24T20:06:53.780Z,3.33
2023-04-24T20:09:25.425Z,3.50
2023-04-24T20:11:57.063Z,3.42
2023-04-24T20:14:28.695Z,3.70
2023-04-24T20:17:01.702Z,3.93
2023-04-24T20:19:33.362Z,3.30
2023-04-24T20:22:05.268Z,3.87
2023-04-24T20:24:36.932Z,3.33
2023-04-24T20:27:08.565Z,4.00
2023-04-24T20:29:40.209Z,3.60
2023-04-24T20:32:13.218Z,3.30
2023-04-24T20:34:44.884Z,3.23
2023-04-24T20:37:16.538Z,3.70
2023-04-24T20:39:48.168Z,3.47
2023-04-24T20:42:19.818Z,3.40
2023-04-24T20:44:51.450Z,3.87
2023-04-24T20:47:24.502Z,3.87
2023-04-24T20:49:56.200Z,3.70
2023-04-24T20:52:27.893Z,3.10
2023-04-24T20:54:59.601Z,3.43
2023-04-24T20:57:31.327Z,3.57
2023-04-24T21:00:03.174Z,3.50
2023-04-24T21:02:36.292Z,3.57
2023-04-24T21:05:08.815Z,3.70
2023-04-24T21:07:40.487Z,3.50
2023-04-24T21:10:12.124Z,3.43
2023-04-24T21:12:43.857Z,3.60
2023-04-24T21:15:15.615Z,3.70
2023-04-24T21:17:48.679Z,3.80
2023-04-24T21:20:20.452Z,4.50
2023-04-24T21:22:54.548Z,3.70
2023-04-24T21:25:26.178Z,4.70
2023-04-24T21:27:58.142Z,4.13
2023-04-24T21:30:29.790Z,3.60
2023-04-24T21:33:03.188Z,3.70
2023-04-24T21:35:35.413Z,3.63
2023-04-24T21:38:07.093Z,4.07
2023-04-24T21:40:38.775Z,3.70
2023-04-24T21:43:10.402Z,4.53
2023-04-24T21:45:42.070Z,4.47
2023-04-24T21:48:15.075Z,3.77
2023-04-24T21:50:46.830Z,4.50
2023-04-24T21:53:18.823Z,4.30
2023-04-24T21:55:50.824Z,4.47
2023-04-24T21:58:22.484Z,4.07
